Time;durP1;ratioP1;P1;durP2;ratioP2;P2;SDS_P1;SDS_P2;PMS_P1;PMS_P2;Temp;Humidity;BMP_temperature;BMP_pressure;BME280_temperature;BME280_humidity;BME280_pressure;Samples;Min_cycle;Max_cycle;Signal;HPM_P1;HPM_P2
2021/04/23 00:01:57;;;;;;;8.93;3.75;;;;;;;8.14;42.93;100900.69;5014032;28;20461;-85
2021/04/23 00:04:23;;;;;;;9.15;4.43;;;;;;;8.09;43.23;100894.72;5012519;28;20049;-85
2021/04/23 00:06:53;;;;;;;9.02;4.45;;;;;;;8.04;43.64;100901.88;5012819;28;20050;-85
2021/04/23 00:09:23;;;;;;;8.32;4.07;;;;;;;8.01;43.95;100891.44;5013653;28;20487;-85
2021/04/23 00:11:55;;;;;;;12.40;4.38;;;;;;;7.98;44.11;100895.03;5013683;28;20049;-85
2021/04/23 00:14:26;;;;;;;13.18;4.30;;;;;;;7.95;44.32;100890.72;5012309;28;20053;-85
2021/04/23 00:16:54;;;;;;;7.70;5.00;;;;;;;7.92;44.32;100892.56;5012412;28;20058;-85
2021/04/23 00:19:23;;;;;;;7.00;4.20;;;;;;;7.90;44.12;100889.13;5013590;28;20501;-85
2021/04/23 00:21:50;;;;;;;9.07;4.10;;;;;;;7.89;44.11;100887.41;5013819;28;20132;-85
2021/04/23 00:24:17;;;;;;;8.52;4.55;;;;;;;7.85;43.88;100891.84;5012486;28;20424;-85
2021/04/23 00:26:44;;;;;;;10.55;4.57;;;;;;;7.84;43.97;100889.31;5013547;28;20076;-85
2021/04/23 00:29:10;;;;;;;10.60;4.68;;;;;;;7.80;44.11;100891.13;5017607;28;20046;-85
2021/04/23 00:31:38;;;;;;;13.43;4.68;;;;;;;7.76;44.29;100884.25;5017519;28;20514;-84
2021/04/23 00:34:05;;;;;;;10.23;4.25;;;;;;;7.74;44.60;100878.22;5016364;28;20054;-85
2021/04/23 00:36:33;;;;;;;14.00;5.28;;;;;;;7.71;44.37;100887.00;5017819;28;20057;-85
2021/04/23 00:39:00;;;;;;;11.35;4.18;;;;;;;7.69;44.57;100876.56;5017554;28;20053;-85
2021/04/23 00:41:33;;;;;;;8.70;3.88;;;;;;;7.65;45.62;100876.69;5016172;28;20053;-85
2021/04/23 00:44:00;;;;;;;11.05;4.50;;;;;;;7.66;44.43;100881.88;5017459;28;20057;-85
2021/04/23 00:46:33;;;;;;;11.95;4.75;;;;;;;7.62;45.85;100880.25;5016115;28;20046;-85
2021/04/23 00:49:01;;;;;;;9.55;4.60;;;;;;;7.62;44.94;100889.88;5017492;28;20081;-85
2021/04/23 00:51:38;;;;;;;21.40;4.82;;;;;;;7.58;45.71;100888.25;5016250;28;20057;-85
2021/04/23 00:54:05;;;;;;;8.10;3.90;;;;;;;7.58;44.37;100891.69;5015964;28;20057;-84
2021/04/23 00:56:34;;;;;;;11.23;4.20;;;;;;;7.56;44.67;100894.34;5016277;28;20053;-85
2021/04/23 00:59:02;;;;;;;12.95;3.97;;;;;;;7.53;44.64;100896.22;5016967;28;20491;-85
2021/04/23 01:01:33;;;;;;;8.30;4.13;;;;;;;7.49;45.12;100892.81;5016152;28;20050;-85
2021/04/23 01:04:00;;;;;;;6.28;3.85;;;;;;;7.47;44.62;100896.38;5017143;28;20050;-84
2021/04/23 01:06:30;;;;;;;8.88;4.60;;;;;;;7.43;45.31;100899.06;5016052;28;20061;-85
2021/04/23 01:09:04;;;;;;;11.18;4.60;;;;;;;7.41;45.06;100900.00;5017098;28;20046;-85
2021/04/23 01:11:31;;;;;;;12.65;4.60;;;;;;;7.38;45.02;100893.09;5016004;28;20053;-84
2021/04/23 01:13:58;;;;;;;10.82;4.53;;;;;;;7.35;45.21;100893.16;5016712;28;20053;-85
2021/04/23 01:16:25;;;;;;;9.50;3.92;;;;;;;7.33;44.94;100896.72;5015949;28;20100;-85
2021/04/23 01:18:53;;;;;;;15.40;5.25;;;;;;;7.29;45.46;100898.56;5016728;28;20050;-85
2021/04/23 01:21:23;;;;;;;10.93;5.07;;;;;;;7.27;45.66;100900.34;5017019;28;20064;-85
2021/04/23 01:23:53;;;;;;;7.60;4.78;;;;;;;7.23;46.09;100893.47;5015493;28;20053;-85
2021/04/23 01:26:21;;;;;;;14.70;5.30;;;;;;;7.21;45.82;100890.03;5015462;28;20054;-85
2021/04/23 01:28:50;;;;;;;9.68;5.25;;;;;;;7.17;45.85;100895.34;5055942;23;20050;-82
2021/04/23 01:31:22;;;;;;;9.48;4.45;;;;;;;7.13;45.92;100896.31;5016640;28;20046;-83
2021/04/23 01:33:54;;;;;;;7.50;4.53;;;;;;;7.11;46.66;100900.72;5016329;28;20054;-83
2021/04/23 01:36:22;;;;;;;10.40;4.93;;;;;;;7.10;46.08;100901.63;5016587;28;20108;-83
2021/04/23 01:38:49;;;;;;;11.27;5.07;;;;;;;7.09;45.81;100905.13;5016130;28;20050;-83
2021/04/23 01:41:18;;;;;;;11.13;4.75;;;;;;;7.06;45.93;100897.34;5016346;28;20061;-83
2021/04/23 01:43:45;;;;;;;13.25;4.43;;;;;;;7.06;46.07;100902.59;5015962;28;20049;-83
2021/04/23 01:46:11;;;;;;;12.10;5.13;;;;;;;7.06;46.12;100897.34;5016265;28;20049;-83
2021/04/23 01:48:38;;;;;;;9.43;5.10;;;;;;;7.03;46.07;100892.22;5015887;28;20406;-82
2021/04/23 01:51:07;;;;;;;11.00;4.65;;;;;;;7.01;46.73;100896.59;5016001;28;20062;-82
2021/04/23 01:53:34;;;;;;;10.88;5.15;;;;;;;6.98;46.09;100904.50;5015874;28;20053;-83
2021/04/23 01:56:02;;;;;;;11.00;5.15;;;;;;;6.97;46.38;100908.03;5014612;28;20049;-82
2021/04/23 01:58:29;;;;;;;9.38;5.22;;;;;;;6.94;46.45;100908.09;5014553;28;20050;-83
2021/04/23 02:00:56;;;;;;;12.43;5.30;;;;;;;6.93;46.75;100911.63;5015971;28;20130;-83
2021/04/23 02:03:23;;;;;;;10.30;4.40;;;;;;;6.91;46.53;100914.28;5015762;28;20560;-83
2021/04/23 02:05:52;;;;;;;11.80;5.32;;;;;;;6.89;46.84;100914.31;5015722;28;20050;-83
2021/04/23 02:08:21;;;;;;;12.05;4.38;;;;;;;6.88;47.22;100917.81;5015508;28;20042;-82
2021/04/23 02:10:55;;;;;;;15.23;5.07;;;;;;;6.87;47.53;100913.50;5014474;28;20107;-82
2021/04/23 02:13:24;;;;;;;8.40;4.90;;;;;;;6.85;47.13;100923.16;5014530;28;20053;-83
2021/04/23 02:15:51;;;;;;;10.93;4.93;;;;;;;6.83;47.03;100919.69;5015489;28;20105;-83
2021/04/23 02:18:18;;;;;;;12.75;4.90;;;;;;;6.83;46.82;100922.31;5015650;28;20445;-83
2021/04/23 02:20:45;;;;;;;12.82;5.10;;;;;;;6.81;47.13;100924.13;5015568;28;20058;-82
2021/04/23 02:23:13;;;;;;;15.18;4.60;;;;;;;6.78;47.45;100927.63;5015502;28;20054;-83
2021/04/23 02:25:40;;;;;;;9.57;4.68;;;;;;;6.80;47.02;100929.38;5014958;28;20053;-83
2021/04/23 02:28:08;;;;;;;14.05;4.95;;;;;;;6.76;47.49;100925.94;5014445;28;20046;-83
2021/04/23 02:30:38;;;;;;;8.65;4.75;;;;;;;6.74;47.85;100922.50;5014148;28;20064;-84
2021/04/23 02:33:06;;;;;;;7.35;4.30;;;;;;;6.74;47.61;100925.13;5014950;28;20054;-83
2021/04/23 02:35:33;;;;;;;14.25;4.70;;;;;;;6.72;47.31;100925.16;5015172;28;20104;-83
2021/04/23 02:37:59;;;;;;;11.45;5.30;;;;;;;6.73;47.29;100926.03;5015049;28;20092;-83
2021/04/23 02:40:28;;;;;;;11.57;4.18;;;;;;;6.70;48.01;100928.72;5015095;28;20049;-83
2021/04/23 02:43:00;;;;;;;9.43;4.88;;;;;;;6.70;47.79;100926.09;5015289;28;20064;-83
2021/04/23 02:45:30;;;;;;;12.48;4.90;;;;;;;6.67;47.89;100931.38;5014773;28;20494;-82
2021/04/23 02:47:56;;;;;;;13.18;5.40;;;;;;;6.67;47.67;100926.16;5014859;28;20486;-83
2021/04/23 02:50:26;;;;;;;15.23;5.15;;;;;;;6.63;48.07;100930.59;5014536;28;20384;-83
2021/04/23 02:52:53;;;;;;;10.05;4.25;;;;;;;6.62;47.50;100932.34;5014673;28;20054;-83
2021/04/23 02:55:19;;;;;;;10.60;4.35;;;;;;;6.62;47.74;100934.13;5014777;28;20054;-83
2021/04/23 02:58:13;;;;;;;13.60;4.60;;;;;;;6.58;49.30;100929.84;5014810;28;20046;-83
2021/04/23 03:00:44;;;;;;;13.13;4.85;;;;;;;6.61;48.35;100940.22;5014863;28;20061;-83
2021/04/23 03:03:11;;;;;;;9.45;4.00;;;;;;;6.61;47.82;100940.22;5014835;28;20050;-83
2021/04/23 03:05:39;;;;;;;11.60;4.90;;;;;;;6.59;48.00;100945.50;5014548;28;20128;-83
2021/04/23 03:08:06;;;;;;;9.60;4.82;;;;;;;6.59;47.88;100953.38;5013398;28;20096;-83
2021/04/23 03:10:36;;;;;;;9.10;4.13;;;;;;;6.58;48.41;100943.75;5014612;28;20054;-83
2021/04/23 03:13:09;;;;;;;13.57;5.18;;;;;;;6.58;49.32;100951.63;5014622;28;20049;-82
2021/04/23 03:15:35;;;;;;;15.75;4.97;;;;;;;6.60;48.29;100944.63;5013002;28;20510;-83
2021/04/23 03:18:03;;;;;;;12.00;4.90;;;;;;;6.62;48.64;100945.44;5014439;28;20046;-82
2021/04/23 03:20:29;;;;;;;11.20;5.00;;;;;;;6.65;48.31;100955.84;5013421;28;20077;-83
2021/04/23 03:22:56;;;;;;;16.73;4.95;;;;;;;6.68;48.56;100952.28;5014316;28;20057;-83
2021/04/23 03:25:28;;;;;;;17.10;4.93;;;;;;;6.70;49.59;100949.66;5014153;28;20061;-83
2021/04/23 03:27:54;;;;;;;9.20;4.28;;;;;;;6.73;48.57;100954.81;5014133;28;20050;-83
2021/04/23 03:30:23;;;;;;;14.88;5.60;;;;;;;6.74;49.22;100954.78;5014085;28;20076;-82
2021/04/23 03:32:50;;;;;;;10.82;5.30;;;;;;;6.77;48.78;100948.63;5014365;28;20419;-82
2021/04/23 03:35:16;;;;;;;12.65;4.72;;;;;;;6.79;48.88;100954.69;5012979;28;20053;-84
2021/04/23 03:37:45;;;;;;;12.07;4.10;;;;;;;6.80;49.32;100947.69;5014272;28;20057;-83
2021/04/23 03:40:13;;;;;;;10.95;4.68;;;;;;;6.83;48.92;100955.47;5013997;28;20052;-83
2021/04/23 03:42:39;;;;;;;12.10;5.05;;;;;;;6.85;48.99;100956.31;5013082;28;20049;-83
2021/04/23 03:45:08;;;;;;;10.65;4.45;;;;;;;6.87;49.20;100955.38;5013724;28;20494;-83
2021/04/23 03:47:35;;;;;;;11.45;4.00;;;;;;;6.90;49.36;100960.53;5013962;28;20095;-82
2021/04/23 03:50:02;;;;;;;11.57;4.40;;;;;;;6.92;49.10;100955.28;5013932;28;20115;-83
2021/04/23 03:52:28;;;;;;;14.05;4.57;;;;;;;6.96;48.77;100956.06;5013955;28;20050;-82
2021/04/23 03:54:54;;;;;;;16.98;4.97;;;;;;;6.98;48.64;100960.38;5013605;28;20568;-83
2021/04/23 03:57:20;;;;;;;16.45;4.47;;;;;;;6.98;48.67;100957.75;5013943;28;20046;-83
2021/04/23 03:59:46;;;;;;;10.13;4.68;;;;;;;6.98;48.94;100965.59;5013937;28;20053;-83
2021/04/23 04:02:13;;;;;;;9.82;4.50;;;;;;;7.00;48.83;100965.56;5012791;28;20491;-83
2021/04/23 04:04:39;;;;;;;12.30;4.40;;;;;;;6.99;49.14;100962.06;5013379;28;20085;-83
2021/04/23 04:07:05;;;;;;;11.02;5.40;;;;;;;7.01;49.01;100962.06;5013847;28;20108;-84
2021/04/23 04:09:31;;;;;;;13.70;4.88;;;;;;;7.02;48.83;100953.28;5013725;28;20129;-84
2021/04/23 04:11:57;;;;;;;10.18;4.35;;;;;;;7.02;49.17;100961.16;5012613;28;20428;-84
2021/04/23 04:14:23;;;;;;;7.57;4.15;;;;;;;7.04;49.15;100967.22;5013373;28;20053;-84
2021/04/23 04:16:49;;;;;;;10.75;4.32;;;;;;;7.05;49.14;100966.31;5013604;28;20483;-84
2021/04/23 04:19:15;;;;;;;11.27;4.32;;;;;;;7.06;48.81;100969.81;5012554;28;20046;-84
2021/04/23 04:21:42;;;;;;;12.52;4.63;;;;;;;7.05;48.77;100979.41;5012489;28;20137;-84
2021/04/23 04:24:08;;;;;;;14.10;4.05;;;;;;;7.03;48.95;100973.38;5012468;28;20058;-84
2021/04/23 04:26:35;;;;;;;12.98;4.35;;;;;;;7.01;48.89;100977.75;5013402;28;20057;-84
2021/04/23 04:29:01;;;;;;;11.77;4.70;;;;;;;6.99;48.91;100977.78;5013353;28;20081;-84
2021/04/23 04:31:27;;;;;;;13.82;4.38;;;;;;;6.99;49.00;100982.19;5013493;28;20057;-84
2021/04/23 04:33:54;;;;;;;12.45;5.35;;;;;;;6.98;49.05;100983.06;5012248;28;20096;-83
2021/04/23 04:36:20;;;;;;;10.40;4.22;;;;;;;6.97;49.19;100986.56;5013215;28;20442;-84
2021/04/23 04:38:46;;;;;;;9.68;4.43;;;;;;;6.96;49.39;100985.72;5012351;28;20434;-84
2021/04/23 04:41:13;;;;;;;11.88;4.30;;;;;;;6.95;49.00;100988.38;5012131;28;20537;-84
2021/04/23 04:43:39;;;;;;;9.38;4.28;;;;;;;6.93;49.40;100991.03;5013523;28;20058;-84
2021/04/23 04:46:07;;;;;;;14.02;4.93;;;;;;;6.93;49.60;100993.63;5013530;28;20050;-84
2021/04/23 04:48:34;;;;;;;13.38;4.75;;;;;;;6.94;49.75;100997.09;5013389;28;20211;-84
2021/04/23 04:51:02;;;;;;;12.10;4.35;;;;;;;6.94;49.91;100997.97;5012183;28;20085;-84
2021/04/23 04:53:29;;;;;;;8.48;3.78;;;;;;;6.97;50.09;100997.91;5013448;28;20499;-84
2021/04/23 04:55:57;;;;;;;8.60;4.10;;;;;;;7.01;50.16;100999.56;5013088;28;20062;-84
2021/04/23 04:58:27;;;;;;;13.18;5.03;;;;;;;7.06;50.73;101006.47;5013479;28;20518;-84
2021/04/23 05:00:53;;;;;;;8.40;4.18;;;;;;;7.10;50.21;101003.72;5012231;28;20104;-84
2021/04/23 05:03:20;;;;;;;11.20;4.07;;;;;;;7.17;50.31;101012.31;5013336;28;20108;-84
2021/04/23 05:05:47;;;;;;;13.10;4.32;;;;;;;7.22;49.98;101006.97;5013224;28;20050;-84
2021/04/23 05:08:13;;;;;;;9.52;4.35;;;;;;;7.26;50.13;101008.63;5011888;28;20073;-84
2021/04/23 05:10:39;;;;;;;10.10;4.43;;;;;;;7.32;50.08;101015.50;5013336;28;20116;-84
2021/04/23 05:13:06;;;;;;;12.50;4.50;;;;;;;7.34;49.96;101014.56;5014777;28;20053;-84
2021/04/23 05:15:32;;;;;;;14.70;3.78;;;;;;;7.37;50.13;101017.09;5016696;28;20188;-84
2021/04/23 05:17:59;;;;;;;11.60;4.35;;;;;;;7.41;50.28;101021.34;5016763;28;20054;-84
2021/04/23 05:20:26;;;;;;;14.88;4.63;;;;;;;7.47;50.25;101014.28;5016723;28;20054;-85
2021/04/23 05:22:52;;;;;;;11.30;4.53;;;;;;;7.53;50.56;101025.47;5016441;28;20049;-84
2021/04/23 05:25:22;;;;;;;9.63;4.55;;;;;;;7.58;51.06;101032.34;5016619;28;20053;-84
2021/04/23 05:27:49;;;;;;;9.63;4.25;;;;;;;7.63;50.35;101040.97;5016474;28;20057;-84
2021/04/23 05:30:19;;;;;;;11.52;4.65;;;;;;;7.69;50.48;101041.69;5016601;28;20054;-84
2021/04/23 05:32:46;;;;;;;10.82;4.28;;;;;;;7.73;50.25;101033.75;5015381;28;20061;-84
2021/04/23 05:35:15;;;;;;;10.05;4.10;;;;;;;7.77;50.18;101049.34;5016009;28;20124;-84
2021/04/23 05:37:41;;;;;;;9.40;4.63;;;;;;;7.82;50.29;101039.59;5015205;28;20184;-84
2021/04/23 05:40:10;;;;;;;13.57;4.35;;;;;;;7.86;50.62;101040.41;5015311;28;20049;-84
2021/04/23 05:42:41;;;;;;;11.63;4.57;;;;;;;7.92;50.31;101039.38;5016475;28;20057;-84
2021/04/23 05:45:09;;;;;;;12.10;4.25;;;;;;;7.95;50.68;101036.69;5016014;28;20430;-84
2021/04/23 05:47:36;;;;;;;6.78;3.55;;;;;;;8.01;50.76;101040.91;5016240;28;20097;-84
2021/04/23 05:50:04;;;;;;;10.63;4.53;;;;;;;8.05;50.53;101039.94;5015866;28;20057;-84
2021/04/23 05:52:31;;;;;;;8.68;3.92;;;;;;;8.11;50.37;101045.00;5017258;28;20050;-84
2021/04/23 05:54:57;;;;;;;11.80;4.30;;;;;;;8.18;50.46;101043.09;5016631;28;20387;-85
2021/04/23 05:57:23;;;;;;;11.20;4.03;;;;;;;8.24;50.54;101045.56;5017660;28;20053;-84
2021/04/23 05:59:49;;;;;;;8.95;3.75;;;;;;;8.29;50.39;101043.66;5016711;28;20053;-84
2021/04/23 06:02:15;;;;;;;9.02;3.85;;;;;;;8.33;50.34;101047.06;5016410;28;20050;-84
2021/04/23 06:04:41;;;;;;;10.25;3.95;;;;;;;8.36;50.06;101047.00;5015054;28;20471;-84
2021/04/23 06:07:08;;;;;;;12.50;3.95;;;;;;;8.40;50.00;101047.75;5015155;28;20053;-84
2021/04/23 06:09:34;;;;;;;10.70;4.32;;;;;;;8.43;50.42;101048.56;5016095;28;20054;-83
2021/04/23 06:12:01;;;;;;;9.65;4.00;;;;;;;8.47;50.52;101052.81;5016336;28;20061;-84
2021/04/23 06:14:27;;;;;;;10.38;3.60;;;;;;;8.52;50.28;101055.31;5015107;28;20101;-84
2021/04/23 06:16:53;;;;;;;10.63;4.13;;;;;;;8.58;50.33;101056.94;5016256;28;20470;-85
2021/04/23 06:19:20;;;;;;;8.77;3.40;;;;;;;8.62;50.54;101066.44;5015454;28;20053;-83
2021/04/23 06:21:47;;;;;;;11.82;4.40;;;;;;;8.67;50.29;101063.72;5015672;28;20108;-83
2021/04/23 06:24:13;;;;;;;11.77;4.28;;;;;;;8.71;50.06;101062.72;5013280;28;20053;-83
2021/04/23 06:26:40;;;;;;;13.60;4.13;;;;;;;8.77;50.27;101066.91;5014500;28;20104;-83
2021/04/23 06:29:06;;;;;;;9.85;3.40;;;;;;;8.81;50.02;101063.28;5015393;28;20045;-83
2021/04/23 06:31:32;;;;;;;13.00;3.78;;;;;;;8.86;49.92;101064.06;5015578;28;20046;-83
2021/04/23 06:33:58;;;;;;;9.23;3.53;;;;;;;8.91;50.40;101070.03;5015004;28;20396;-83
2021/04/23 06:36:25;;;;;;;7.55;2.92;;;;;;;8.98;50.41;101068.06;5015763;28;20128;-83
2021/04/23 06:38:51;;;;;;;12.50;3.67;;;;;;;9.05;50.05;101066.13;5015462;28;20046;-83
2021/04/23 06:41:17;;;;;;;9.82;3.47;;;;;;;9.12;49.95;101070.28;5015798;28;20053;-83
2021/04/23 06:43:44;;;;;;;8.77;3.45;;;;;;;9.18;50.09;101071.88;5015293;28;20054;-82
2021/04/23 06:46:12;;;;;;;14.43;3.80;;;;;;;9.25;50.16;101073.41;5015230;28;20050;-83
2021/04/23 06:48:41;;;;;;;13.68;3.75;;;;;;;9.33;49.87;101067.91;5013763;28;20050;-83
2021/04/23 06:51:07;;;;;;;6.90;3.35;;;;;;;9.39;49.59;101065.97;5015145;28;20050;-82
2021/04/23 06:53:33;;;;;;;8.85;3.38;;;;;;;9.49;49.66;101063.03;5015072;28;20050;-83
2021/04/23 06:56:01;;;;;;;8.88;3.38;;;;;;;9.56;49.26;101068.97;5015304;28;20050;-82
2021/04/23 06:58:29;;;;;;;7.20;2.75;;;;;;;9.61;49.05;101067.06;5015075;28;20053;-82
2021/04/23 07:00:55;;;;;;;7.22;2.83;;;;;;;9.68;48.93;101073.00;5014771;28;20054;-83
2021/04/23 07:03:21;;;;;;;7.80;3.17;;;;;;;9.72;48.91;101066.72;5014771;28;20061;-82
2021/04/23 07:05:48;;;;;;;9.80;2.97;;;;;;;9.75;48.52;101070.09;5014839;28;20053;-83
2021/04/23 07:08:14;;;;;;;7.15;3.22;;;;;;;9.79;48.70;101065.59;5013550;28;20104;-83
2021/04/23 07:10:40;;;;;;;9.88;3.35;;;;;;;9.83;48.67;101069.00;5014549;28;20049;-83
2021/04/23 07:13:07;;;;;;;7.43;2.80;;;;;;;9.87;48.52;101070.63;5015410;28;20046;-82
2021/04/23 07:15:34;;;;;;;7.90;2.92;;;;;;;9.90;48.19;101079.25;5013520;28;20553;-82
2021/04/23 07:18:02;;;;;;;6.25;2.90;;;;;;;9.93;48.08;101074.81;5018096;28;20053;-83
2021/04/23 07:20:35;;;;;;;7.68;3.10;;;;;;;9.96;47.96;101082.59;5014813;28;20058;-82
2021/04/23 07:23:03;;;;;;;11.57;3.22;;;;;;;9.96;47.99;101083.47;5014631;28;20491;-83
2021/04/23 07:25:30;;;;;;;6.03;2.70;;;;;;;9.98;47.62;101078.16;5014322;28;20050;-83
2021/04/23 07:27:58;;;;;;;7.63;3.08;;;;;;;9.99;47.71;101079.88;5056360;23;20119;-83
2021/04/23 07:30:28;;;;;;;10.38;3.30;;;;;;;10.00;47.63;101087.72;5034290;28;20069;-82
2021/04/23 07:32:55;;;;;;;6.18;2.92;;;;;;;10.04;47.54;101088.47;5033150;28;20097;-82
2021/04/23 07:35:22;;;;;;;7.90;2.90;;;;;;;10.07;47.47;101085.75;5032559;28;20060;-82
2021/04/23 07:37:49;;;;;;;6.13;2.72;;;;;;;10.13;47.50;101088.16;5032785;28;20077;-82
2021/04/23 07:40:17;;;;;;;7.50;2.60;;;;;;;10.22;47.50;101094.03;5033910;28;20049;-82
2021/04/23 07:42:44;;;;;;;6.70;3.40;;;;;;;10.30;47.58;101092.88;5032904;28;20053;-81
2021/04/23 07:45:11;;;;;;;7.70;2.90;;;;;;;10.41;47.32;101086.34;5033880;28;20132;-82
2021/04/23 07:47:37;;;;;;;12.15;3.53;;;;;;;10.51;47.28;101085.13;5033728;28;20433;-82
2021/04/23 07:50:07;;;;;;;6.38;2.83;;;;;;;10.60;47.47;101081.34;5032458;28;20494;-81
2021/04/23 07:52:34;;;;;;;7.43;3.03;;;;;;;10.71;46.97;101094.13;5034235;28;20060;-81
2021/04/23 07:55:02;;;;;;;9.07;3.25;;;;;;;10.79;46.98;101091.19;5032571;28;20046;-82
2021/04/23 07:57:30;;;;;;;7.07;3.20;;;;;;;10.88;46.85;101098.75;5033854;28;20057;-82
2021/04/23 07:59:56;;;;;;;8.32;3.42;;;;;;;10.95;46.66;101097.63;5033583;28;20049;-81
2021/04/23 08:02:22;;;;;;;8.15;3.50;;;;;;;11.01;46.33;101100.94;5033820;28;20054;-82
2021/04/23 08:04:49;;;;;;;11.00;3.92;;;;;;;11.06;46.44;101094.59;5033313;28;20054;-82
2021/04/23 08:07:16;;;;;;;10.75;3.80;;;;;;;11.13;46.54;101095.22;5033678;28;20054;-82
2021/04/23 08:09:42;;;;;;;7.85;3.75;;;;;;;11.17;46.64;101086.28;5032153;28;20054;-82
2021/04/23 08:12:08;;;;;;;6.93;3.17;;;;;;;11.23;45.90;101089.59;5033620;28;20060;-82
2021/04/23 08:14:35;;;;;;;7.65;3.38;;;;;;;11.27;45.62;101091.19;5033291;28;20464;-82
2021/04/23 08:17:06;;;;;;;10.27;3.90;;;;;;;11.32;45.46;101095.38;5032191;28;20103;-82
2021/04/23 08:19:34;;;;;;;10.30;3.72;;;;;;;11.37;45.58;101094.34;5031989;28;20074;-82
2021/04/23 08:22:00;;;;;;;5.25;3.25;;;;;;;11.41;45.73;101102.09;5033431;28;20058;-81
2021/04/23 08:24:26;;;;;;;7.80;4.15;;;;;;;11.46;45.48;101101.88;5032244;28;20054;-82
2021/04/23 08:26:52;;;;;;;9.68;4.15;;;;;;;11.49;45.69;101100.91;5033451;28;20081;-82
2021/04/23 08:29:18;;;;;;;5.18;3.70;;;;;;;11.51;45.30;101099.91;5032923;28;20498;-82
2021/04/23 08:31:44;;;;;;;6.15;3.63;;;;;;;11.54;45.17;101097.16;5033087;28;20079;-82
2021/04/23 08:34:11;;;;;;;6.40;3.60;;;;;;;11.57;45.40;101094.44;5033187;28;20465;-83
2021/04/23 08:36:38;;;;;;;7.97;3.55;;;;;;;11.60;45.47;101091.63;5033339;28;20049;-82
2021/04/23 08:39:07;;;;;;;8.02;3.72;;;;;;;11.65;44.76;101103.78;5033415;28;20056;-82
2021/04/23 08:41:35;;;;;;;7.30;4.00;;;;;;;11.69;45.10;101097.47;5033496;28;20053;-82
2021/04/23 08:44:02;;;;;;;9.27;4.53;;;;;;;11.72;44.90;101094.72;5031904;28;20161;-81
2021/04/23 08:46:28;;;;;;;9.10;4.07;;;;;;;11.77;45.08;101097.19;5031954;28;20490;-81
2021/04/23 08:48:55;;;;;;;9.57;4.07;;;;;;;11.84;45.40;101103.91;5036431;28;20073;-81
2021/04/23 08:51:22;;;;;;;8.57;4.43;;;;;;;11.94;45.84;101099.13;5035993;28;20119;-81
2021/04/23 08:53:57;;;;;;;7.13;3.92;;;;;;;12.05;45.91;101096.03;5036711;28;20052;-81
2021/04/23 08:56:24;;;;;;;9.18;4.18;;;;;;;12.24;45.51;101118.16;5036080;28;20053;-81
2021/04/23 08:58:51;;;;;;;9.30;4.15;;;;;;;12.37;45.48;101105.28;5036832;28;20045;-81
2021/04/23 09:01:18;;;;;;;5.85;3.58;;;;;;;12.52;44.66;101097.59;5038420;28;20057;-82
2021/04/23 09:03:45;;;;;;;8.88;3.78;;;;;;;12.64;44.46;101105.00;5036690;28;20084;-81
2021/04/23 09:06:15;;;;;;;7.18;3.47;;;;;;;12.73;43.35;101106.38;5035709;28;20053;-81
2021/04/23 09:08:50;;;;;;;4.60;3.80;;;;;;;12.80;42.35;101104.31;5036956;28;20046;-81
2021/04/23 09:11:19;;;;;;;8.60;3.53;;;;;;;12.87;43.27;101105.75;5036705;28;20057;-81
2021/04/23 09:13:50;;;;;;;8.18;4.47;;;;;;;12.93;43.35;101114.34;5036276;28;20049;-81
2021/04/23 09:16:19;;;;;;;9.43;4.63;;;;;;;12.99;43.31;101106.13;5035420;28;20545;-81
2021/04/23 09:18:51;;;;;;;6.18;3.80;;;;;;;13.06;43.46;101104.06;5035419;28;20408;-82
2021/04/23 09:21:17;;;;;;;8.55;3.80;;;;;;;13.11;42.55;101105.56;5036751;28;20050;-82
2021/04/23 09:23:52;;;;;;;6.53;3.47;;;;;;;13.11;41.68;101110.84;5036382;28;20049;-82
2021/04/23 09:26:38;;;;;;;8.55;4.00;;;;;;;13.09;41.89;101109.22;5035244;28;20049;-82
2021/04/23 09:29:20;;;;;;;14.65;3.80;;;;;;;13.11;42.37;101108.22;5036592;28;20045;-82
2021/04/23 09:31:46;;;;;;;10.25;3.67;;;;;;;13.13;42.34;101101.06;5036562;28;20052;-82
2021/04/23 09:34:12;;;;;;;8.57;3.53;;;;;;;13.16;42.13;101102.72;5034972;28;20445;-82
2021/04/23 09:36:44;;;;;;;8.60;4.07;;;;;;;13.20;41.99;101098.97;5035256;28;20060;-82
2021/04/23 09:39:17;;;;;;;11.27;4.13;;;;;;;13.28;42.51;101102.13;5034919;28;20052;-82
2021/04/23 09:42:04;;;;;;;8.73;3.53;;;;;;;13.37;41.73;101095.56;5035084;28;20119;-82
2021/04/23 09:44:36;;;;;;;9.38;3.85;;;;;;;13.52;42.35;101106.38;5035933;28;20053;-82
2021/04/23 09:47:14;;;;;;;5.90;3.70;;;;;;;13.63;41.94;101098.78;5036136;28;20053;-82
2021/04/23 09:49:42;;;;;;;6.75;3.70;;;;;;;13.80;42.36;101099.75;5035906;28;20045;-82
2021/04/23 09:52:12;;;;;;;8.63;3.92;;;;;;;13.92;42.39;101101.81;5035890;28;20049;-82
2021/04/23 09:54:39;;;;;;;6.25;3.70;;;;;;;14.07;42.45;101108.13;5035776;28;20111;-81
2021/04/23 09:57:23;;;;;;;11.98;4.05;;;;;;;14.20;41.31;101103.06;5036003;28;20049;-81
2021/04/23 09:59:54;;;;;;;9.07;4.40;;;;;;;14.38;41.18;101115.41;5035647;28;20460;-81
2021/04/23 10:02:23;;;;;;;6.32;4.05;;;;;;;14.46;41.14;101103.50;5035986;28;20107;-81
2021/04/23 10:04:49;;;;;;;7.90;4.50;;;;;;;14.51;40.05;101108.56;5035587;28;20060;-81
2021/04/23 10:07:22;;;;;;;8.73;3.78;;;;;;;14.50;40.21;101103.34;5035764;28;20045;-81
2021/04/23 10:10:00;;;;;;;10.48;4.05;;;;;;;14.47;40.92;101112.31;5035517;28;20045;-82
2021/04/23 10:12:37;;;;;;;9.68;3.85;;;;;;;14.50;40.36;101103.34;5035607;28;20053;-80
2021/04/23 10:15:29;;;;;;;9.25;4.15;;;;;;;14.58;41.09;101109.94;5034356;28;20055;-80
2021/04/23 10:17:59;;;;;;;11.10;3.83;;;;;;;14.73;41.14;101108.28;5035507;28;20115;-80
2021/04/23 10:20:35;;;;;;;5.93;4.00;;;;;;;14.86;41.03;101115.63;5035416;28;20049;-80
2021/04/23 10:23:03;;;;;;;6.25;3.72;;;;;;;15.03;40.90;101108.56;5035352;28;20434;-80
2021/04/23 10:25:30;;;;;;;6.82;3.67;;;;;;;15.18;40.52;101102.41;5035004;28;20049;-80
2021/04/23 10:27:59;;;;;;;6.88;3.55;;;;;;;15.31;39.95;101105.25;5035707;28;20057;-80
2021/04/23 10:30:30;;;;;;;9.55;3.67;;;;;;;15.43;39.78;101106.38;5035092;28;20046;-80
2021/04/23 10:33:10;;;;;;;6.32;3.53;;;;;;;15.56;39.69;101103.91;5035072;28;20413;-80
2021/04/23 10:35:38;;;;;;;9.40;3.88;;;;;;;15.69;40.18;101104.03;5035286;28;20049;-80
2021/04/23 10:38:19;;;;;;;9.43;3.75;;;;;;;15.82;38.44;101106.00;5035109;28;20059;-80
2021/04/23 10:40:55;;;;;;;5.00;3.13;;;;;;;15.91;37.97;101102.81;5033834;28;20449;-80
2021/04/23 10:43:30;;;;;;;6.00;3.10;;;;;;;16.00;38.97;101101.47;5035147;28;20123;-80
2021/04/23 10:46:09;;;;;;;7.07;3.33;;;;;;;16.01;39.15;101104.00;5034655;28;20414;-80
2021/04/23 10:48:38;;;;;;;7.95;3.20;;;;;;;16.15;39.60;101102.34;5034905;28;20049;-82
2021/04/23 10:51:08;;;;;;;8.27;3.72;;;;;;;16.32;40.47;101103.13;5034663;28;20056;-82
2021/04/23 10:53:45;;;;;;;5.10;3.10;;;;;;;16.56;39.95;101107.94;5034802;28;20410;-80
2021/04/23 10:56:35;;;;;;;6.07;3.47;;;;;;;16.74;38.39;101109.47;5034571;28;20089;-81
2021/04/23 10:59:08;;;;;;;6.35;3.60;;;;;;;16.92;38.21;101090.66;5034726;28;20072;-81
2021/04/23 11:01:43;;;;;;;6.95;3.53;;;;;;;17.17;38.59;101094.47;5033473;28;20054;-82
2021/04/23 11:04:17;;;;;;;8.43;4.20;;;;;;;17.44;37.26;101099.81;5033103;28;20561;-81
2021/04/23 11:06:59;;;;;;;4.15;3.42;;;;;;;17.69;36.01;101097.38;5033344;28;20049;-81
2021/04/23 11:09:25;;;;;;;7.13;3.60;;;;;;;17.87;36.19;101105.09;5034507;28;20453;-81
2021/04/23 11:12:07;;;;;;;8.52;3.53;;;;;;;17.79;35.89;101092.28;5034073;28;20053;-81
2021/04/23 11:14:35;;;;;;;7.45;3.80;;;;;;;17.82;36.23;101095.59;5034083;28;20080;-81
2021/04/23 11:17:17;;;;;;;8.57;3.55;;;;;;;17.95;36.63;101078.81;5034451;28;20085;-81
2021/04/23 11:19:44;;;;;;;7.28;3.78;;;;;;;18.35;37.60;101084.09;5034133;28;20501;-81
2021/04/23 11:22:21;;;;;;;6.68;3.47;;;;;;;18.89;37.50;101071.47;5033304;28;20060;-81
2021/04/23 11:25:20;;;;;;;12.40;3.90;;;;;;;19.63;37.01;101082.28;5032894;28;20111;-81
2021/04/23 11:28:07;;;;;;;9.00;3.55;;;;;;;20.15;35.00;101074.84;5022102;28;20456;-82
2021/04/23 11:31:09;;;;;;;6.45;3.30;;;;;;;20.43;34.27;101087.91;5033309;28;20512;-82
2021/04/23 11:33:58;;;;;;;7.88;3.35;;;;;;;20.56;34.73;101077.13;5012660;28;20132;-82
2021/04/23 11:36:26;;;;;;;6.07;3.72;;;;;;;20.84;35.73;101077.59;5033210;28;20057;-82